Time;durP1;ratioP1;P1;durP2;ratioP2;P2;SDS_P1;SDS_P2;PMS_P1;PMS_P2;Temp;Humidity;BMP_temperature;BMP_pressure;BME280_temperature;BME280_humidity;BME280_pressure;Samples;Min_cycle;Max_cycle;Signal;HPM_P1;HPM_P2
2022/12/26 06:39:33;;;;;;;0.40;0.40;;;;;;;;;;7385299;19;20568;-64
2022/12/26 06:41:59;;;;;;;0.50;0.50;;;;;;;;;;7392303;19;20328;-65
2022/12/26 06:44:24;;;;;;;0.43;0.43;;;;;;;;;;7389487;19;20160;-65
2022/12/26 06:46:49;;;;;;;0.40;0.40;;;;;;;;;;7391336;19;20582;-64
2022/12/26 06:49:15;;;;;;;0.97;0.97;;;;;;;;;;7392226;19;20148;-65
2022/12/26 06:51:40;;;;;;;0.50;0.50;;;;;;;;;;7390751;19;20117;-64
2022/12/26 06:54:05;;;;;;;0.40;0.40;;;;;;;;;;7389439;19;20157;-65
2022/12/26 06:56:32;;;;;;;0.53;0.53;;;;;;;;;;7379704;19;20461;-64
2022/12/26 06:58:59;;;;;;;0.43;0.43;;;;;;;;;;7388369;19;20606;-65
2022/12/26 07:01:25;;;;;;;0.33;0.33;;;;;;;;;;7389046;19;20144;-64
2022/12/26 07:03:52;;;;;;;0.30;0.30;;;;;;;;;;7388287;19;20149;-65
2022/12/26 07:06:42;;;;;;;0.30;0.30;;;;;;;;;;7385996;19;20133;-65
2022/12/26 07:09:11;;;;;;;0.30;0.30;;;;;;;;;;7390583;19;20590;-65
2022/12/26 07:11:38;;;;;;;0.30;0.30;;;;;;;;;;7375404;19;20586;-65
2022/12/26 07:14:04;;;;;;;1.23;0.90;;;;;;;;;;7381318;19;20145;-65
2022/12/26 07:16:29;;;;;;;0.40;0.40;;;;;;;;;;7386140;19;20128;-64
2022/12/26 07:18:56;;;;;;;0.30;0.30;;;;;;;;;;7387080;19;20132;-64
2022/12/26 07:21:22;;;;;;;0.30;0.30;;;;;;;;;;7388035;19;20140;-64
2022/12/26 07:23:48;;;;;;;0.60;0.60;;;;;;;;;;7387524;19;20159;-64
2022/12/26 07:26:13;;;;;;;0.50;0.50;;;;;;;;;;7386173;19;20128;-64
2022/12/26 07:28:38;;;;;;;0.40;0.40;;;;;;;;;;7389572;19;20117;-64
2022/12/26 07:31:04;;;;;;;0.70;0.70;;;;;;;;;;7385847;19;20477;-64
2022/12/26 07:33:29;;;;;;;0.33;0.33;;;;;;;;;;7386445;19;20156;-64
2022/12/26 07:36:02;;;;;;;1.07;1.07;;;;;;;;;;7386485;19;20526;-64
2022/12/26 07:38:28;;;;;;;0.40;0.40;;;;;;;;;;7387380;19;20144;-64
2022/12/26 07:40:57;;;;;;;0.50;0.50;;;;;;;;;;7382514;19;20128;-64
2022/12/26 07:43:23;;;;;;;0.47;0.47;;;;;;;;;;7362941;19;20149;-64
2022/12/26 07:45:48;;;;;;;0.40;0.40;;;;;;;;;;7366260;19;20152;-64
2022/12/26 07:48:13;;;;;;;0.57;0.57;;;;;;;;;;7372707;19;20121;-64
2022/12/26 07:50:39;;;;;;;0.50;0.50;;;;;;;;;;7374548;19;20132;-64
2022/12/26 07:53:04;;;;;;;0.70;0.67;;;;;;;;;;7375362;19;20208;-64
2022/12/26 07:55:30;;;;;;;0.20;0.20;;;;;;;;;;7383592;19;20587;-64
2022/12/26 07:57:55;;;;;;;0.30;0.30;;;;;;;;;;7384325;19;20129;-64
2022/12/26 08:00:20;;;;;;;0.30;0.30;;;;;;;;;;7387978;19;20514;-64
2022/12/26 08:02:48;;;;;;;0.30;0.30;;;;;;;;;;7386874;19;20152;-64
2022/12/26 08:05:14;;;;;;;0.50;0.50;;;;;;;;;;7380472;19;20125;-64
2022/12/26 08:07:39;;;;;;;2.53;0.60;;;;;;;;;;7387245;19;20117;-64
2022/12/26 08:10:05;;;;;;;0.40;0.40;;;;;;;;;;7388496;19;20219;-64
2022/12/26 08:12:32;;;;;;;0.30;0.30;;;;;;;;;;7378505;19;20198;-64
2022/12/26 08:14:57;;;;;;;0.40;0.40;;;;;;;;;;7380743;19;20133;-64
2022/12/26 08:17:22;;;;;;;0.53;0.43;;;;;;;;;;7388201;19;20140;-64
2022/12/26 08:19:47;;;;;;;0.73;0.70;;;;;;;;;;7386578;19;20109;-64
2022/12/26 08:22:13;;;;;;;0.47;0.47;;;;;;;;;;7386691;19;20504;-64
2022/12/26 08:24:38;;;;;;;0.50;0.50;;;;;;;;;;7385676;19;20421;-64
2022/12/26 08:27:03;;;;;;;0.60;0.60;;;;;;;;;;7387127;19;20129;-64
2022/12/26 08:29:29;;;;;;;0.60;0.60;;;;;;;;;;7390052;19;20121;-64
2022/12/26 08:31:54;;;;;;;0.30;0.30;;;;;;;;;;7387470;19;20160;-64
2022/12/26 08:34:20;;;;;;;0.67;0.67;;;;;;;;;;7388147;19;20721;-64
2022/12/26 08:36:45;;;;;;;0.30;0.30;;;;;;;;;;7389777;19;20133;-64
2022/12/26 08:39:11;;;;;;;0.83;0.83;;;;;;;;;;7393532;19;20117;-64
2022/12/26 08:41:36;;;;;;;0.27;0.27;;;;;;;;;;7383796;19;20124;-64
2022/12/26 08:44:01;;;;;;;0.30;0.30;;;;;;;;;;7379628;19;20634;-64
2022/12/26 08:46:27;;;;;;;0.40;0.40;;;;;;;;;;7392567;19;20579;-64
2022/12/26 08:48:52;;;;;;;0.60;0.60;;;;;;;;;;7384519;19;20167;-64
2022/12/26 08:51:20;;;;;;;0.60;0.60;;;;;;;;;;7381100;19;20525;-64
2022/12/26 08:53:48;;;;;;;0.40;0.40;;;;;;;;;;7371885;19;20152;-64
2022/12/26 08:56:15;;;;;;;0.60;0.60;;;;;;;;;;7376502;19;20163;-64
2022/12/26 08:58:41;;;;;;;1.38;1.00;;;;;;;;;;7354581;19;20134;-64
2022/12/26 09:01:15;;;;;;;0.50;0.50;;;;;;;;;;7382183;19;20525;-64
2022/12/26 09:03:42;;;;;;;0.52;0.52;;;;;;;;;;7368892;19;20156;-65
2022/12/26 09:06:08;;;;;;;0.68;0.68;;;;;;;;;;7367464;19;20137;-64
2022/12/26 09:08:34;;;;;;;0.30;0.30;;;;;;;;;;7374975;19;20156;-64
2022/12/26 09:11:05;;;;;;;1.60;0.43;;;;;;;;;;7379855;19;20136;-64
2022/12/26 09:13:32;;;;;;;0.38;0.38;;;;;;;;;;7379871;19;20153;-65
2022/12/26 09:16:08;;;;;;;0.73;0.50;;;;;;;;;;7381987;19;20141;-64
2022/12/26 09:18:34;;;;;;;0.38;0.38;;;;;;;;;;7390957;19;20125;-66
2022/12/26 09:21:03;;;;;;;0.30;0.30;;;;;;;;;;7394541;19;20124;-66
2022/12/26 09:23:29;;;;;;;0.32;0.32;;;;;;;;;;7386663;19;20643;-65
2022/12/26 09:25:55;;;;;;;0.50;0.50;;;;;;;;;;7390660;19;20142;-65
2022/12/26 09:28:20;;;;;;;0.68;0.68;;;;;;;;;;7391049;19;20606;-66
2022/12/26 09:30:45;;;;;;;0.40;0.40;;;;;;;;;;7391929;19;20121;-65
2022/12/26 09:33:11;;;;;;;0.32;0.32;;;;;;;;;;7390566;19;20145;-65
2022/12/26 09:35:40;;;;;;;0.75;0.75;;;;;;;;;;7394152;19;20145;-64
2022/12/26 09:38:05;;;;;;;0.45;0.45;;;;;;;;;;7386462;19;20834;-66
2022/12/26 09:40:41;;;;;;;0.30;0.30;;;;;;;;;;7385441;19;20220;-64
2022/12/26 09:43:39;;;;;;;0.47;0.47;;;;;;;;;;7349800;19;20610;-65
2022/12/26 09:46:16;;;;;;;0.32;0.32;;;;;;;;;;7345765;19;20466;-64
2022/12/26 09:49:18;;;;;;;0.68;0.68;;;;;;;;;;7366396;19;20147;-64
2022/12/26 09:51:46;;;;;;;1.15;0.68;;;;;;;;;;7382902;19;20120;-64
2022/12/26 09:54:25;;;;;;;0.73;0.73;;;;;;;;;;7383610;19;20156;-65
2022/12/26 09:56:51;;;;;;;0.65;0.65;;;;;;;;;;7389502;19;20184;-65
2022/12/26 09:59:18;;;;;;;0.40;0.40;;;;;;;;;;7388417;19;20129;-65
2022/12/26 10:01:47;;;;;;;0.30;0.30;;;;;;;;;;7392093;19;20121;-65
2022/12/26 10:04:28;;;;;;;0.60;0.60;;;;;;;;;;7390823;19;20149;-64
2022/12/26 10:07:10;;;;;;;0.73;0.73;;;;;;;;;;7392689;19;20156;-65
2022/12/26 10:09:47;;;;;;;0.30;0.30;;;;;;;;;;7393144;19;20121;-65
2022/12/26 10:12:35;;;;;;;0.20;0.20;;;;;;;;;;7388897;19;20137;-65
2022/12/26 10:15:16;;;;;;;0.50;0.50;;;;;;;;;;7391650;19;20180;-65
2022/12/26 10:17:48;;;;;;;0.30;0.30;;;;;;;;;;7391859;19;20134;-65
2022/12/26 10:20:22;;;;;;;0.35;0.35;;;;;;;;;;7390123;19;20678;-64
2022/12/26 10:23:25;;;;;;;0.50;0.50;;;;;;;;;;7391033;19;20155;-65
2022/12/26 10:26:27;;;;;;;0.40;0.40;;;;;;;;;;7389195;19;20204;-64
2022/12/26 10:28:59;;;;;;;0.30;0.30;;;;;;;;;;7391180;19;20121;-65
2022/12/26 10:31:33;;;;;;;1.02;0.55;;;;;;;;;;7389138;19;20120;-65
2022/12/26 10:34:19;;;;;;;0.30;0.30;;;;;;;;;;7382893;19;20176;-65
2022/12/26 10:36:48;;;;;;;0.30;0.30;;;;;;;;;;7386231;19;20196;-65
2022/12/26 10:39:49;;;;;;;0.30;0.30;;;;;;;;;;7390218;19;20121;-65
2022/12/26 10:42:32;;;;;;;0.30;0.30;;;;;;;;;;7391989;19;20630;-65
2022/12/26 10:44:58;;;;;;;0.60;0.60;;;;;;;;;;7386834;19;20113;-65
2022/12/26 10:47:29;;;;;;;0.40;0.40;;;;;;;;;;7389341;19;20124;-65
2022/12/26 10:49:58;;;;;;;0.40;0.40;;;;;;;;;;7389373;19;20117;-65
2022/12/26 10:52:29;;;;;;;0.55;0.55;;;;;;;;;;7391275;19;20129;-65
2022/12/26 10:54:56;;;;;;;0.65;0.65;;;;;;;;;;7390347;19;20140;-65
2022/12/26 10:57:22;;;;;;;0.95;0.57;;;;;;;;;;7391623;19;20125;-65
2022/12/26 10:59:49;;;;;;;0.68;0.68;;;;;;;;;;7391213;19;20458;-65
2022/12/26 11:02:27;;;;;;;0.50;0.50;;;;;;;;;;7388992;19;20166;-65
2022/12/26 11:05:12;;;;;;;0.40;0.40;;;;;;;;;;7388091;19;20142;-65
2022/12/26 11:07:43;;;;;;;0.57;0.57;;;;;;;;;;7389108;19;20438;-65
2022/12/26 11:10:20;;;;;;;0.30;0.30;;;;;;;;;;7391144;19;20141;-64
2022/12/26 11:12:51;;;;;;;1.27;0.40;;;;;;;;;;7388478;19;20216;-65
2022/12/26 11:15:26;;;;;;;0.30;0.30;;;;;;;;;;7390593;19;20121;-65
2022/12/26 11:17:52;;;;;;;0.50;0.50;;;;;;;;;;7389370;19;20124;-65
2022/12/26 11:20:24;;;;;;;0.30;0.30;;;;;;;;;;7387573;19;20123;-65
2022/12/26 11:22:50;;;;;;;0.45;0.45;;;;;;;;;;7391380;19;20200;-65
2022/12/26 11:25:19;;;;;;;0.30;0.30;;;;;;;;;;7385330;19;20120;-65
2022/12/26 11:27:53;;;;;;;0.45;0.45;;;;;;;;;;7388797;19;20587;-65
2022/12/26 11:30:20;;;;;;;0.32;0.32;;;;;;;;;;7391526;19;20117;-65
2022/12/26 11:32:48;;;;;;;0.47;0.40;;;;;;;;;;7389563;19;20654;-65
2022/12/26 11:35:25;;;;;;;0.40;0.40;;;;;;;;;;7388404;19;20117;-65
2022/12/26 11:37:53;;;;;;;0.40;0.40;;;;;;;;;;7392166;19;20598;-65
2022/12/26 11:40:21;;;;;;;0.30;0.30;;;;;;;;;;7388683;19;20137;-65
2022/12/26 11:42:58;;;;;;;0.30;0.30;;;;;;;;;;7388124;19;20152;-65
2022/12/26 11:45:28;;;;;;;0.27;0.27;;;;;;;;;;7387792;19;20136;-65
2022/12/26 11:47:54;;;;;;;1.03;0.40;;;;;;;;;;7387648;19;20213;-65
2022/12/26 11:50:22;;;;;;;0.40;0.40;;;;;;;;;;7389645;19;20121;-65
2022/12/26 11:53:04;;;;;;;0.30;0.30;;;;;;;;;;7388461;19;20192;-65
2022/12/26 11:55:35;;;;;;;0.20;0.20;;;;;;;;;;7388422;19;20128;-65
2022/12/26 11:58:07;;;;;;;0.43;0.40;;;;;;;;;;7389033;19;20137;-65
2022/12/26 12:00:36;;;;;;;0.50;0.50;;;;;;;;;;7390935;19;20133;-65
2022/12/26 12:03:07;;;;;;;0.20;0.20;;;;;;;;;;7396645;19;20149;-65
2022/12/26 12:05:52;;;;;;;0.30;0.30;;;;;;;;;;7395542;19;20579;-65
2022/12/26 12:08:27;;;;;;;0.30;0.30;;;;;;;;;;7393996;19;20565;-65
2022/12/26 12:10:55;;;;;;;0.30;0.30;;;;;;;;;;7396355;19;20108;-65
2022/12/26 12:13:26;;;;;;;0.30;0.30;;;;;;;;;;7394587;19;20152;-65
2022/12/26 12:16:21;;;;;;;0.45;0.45;;;;;;;;;;7395039;19;20124;-65
2022/12/26 12:19:05;;;;;;;0.30;0.30;;;;;;;;;;7395185;19;20196;-65
2022/12/26 12:21:41;;;;;;;0.20;0.20;;;;;;;;;;7397448;19;20593;-65
2022/12/26 12:24:25;;;;;;;0.40;0.40;;;;;;;;;;7392795;19;20499;-65
2022/12/26 12:27:00;;;;;;;0.37;0.37;;;;;;;;;;7395972;19;20744;-65
2022/12/26 12:30:03;;;;;;;0.30;0.30;;;;;;;;;;7396386;19;20180;-65
2022/12/26 12:32:49;;;;;;;0.20;0.20;;;;;;;;;;7394469;19;20144;-65
2022/12/26 12:35:37;;;;;;;0.30;0.30;;;;;;;;;;7394163;19;20125;-64
2022/12/26 12:38:20;;;;;;;0.20;0.20;;;;;;;;;;7396108;19;20125;-65
2022/12/26 12:41:21;;;;;;;0.20;0.20;;;;;;;;;;7394986;19;20121;-65
2022/12/26 12:44:21;;;;;;;0.30;0.30;;;;;;;;;;7392636;19;20159;-65
2022/12/26 12:47:29;;;;;;;0.20;0.20;;;;;;;;;;7392276;19;20109;-65
2022/12/26 12:49:54;;;;;;;0.30;0.30;;;;;;;;;;7395766;19;20254;-65
2022/12/26 12:52:54;;;;;;;9.73;0.57;;;;;;;;;;7396496;19;20112;-65
2022/12/26 12:55:25;;;;;;;0.30;0.30;;;;;;;;;;7393172;19;20128;-64
2022/12/26 12:58:09;;;;;;;0.20;0.20;;;;;;;;;;7396053;19;20128;-65
2022/12/26 13:00:44;;;;;;;0.20;0.20;;;;;;;;;;7397015;19;20133;-65
2022/12/26 13:03:37;;;;;;;0.20;0.20;;;;;;;;;;7391115;19;20132;-65
2022/12/26 13:06:42;;;;;;;0.20;0.20;;;;;;;;;;7391670;19;21104;-65
2022/12/26 13:09:16;;;;;;;0.20;0.20;;;;;;;;;;7393077;19;20116;-65
2022/12/26 13:11:49;;;;;;;0.20;0.20;;;;;;;;;;7396221;19;20124;-65
2022/12/26 13:14:24;;;;;;;0.60;0.60;;;;;;;;;;7389489;19;20495;-65
2022/12/26 13:16:54;;;;;;;0.20;0.20;;;;;;;;;;7394110;19;20120;-65
2022/12/26 13:19:24;;;;;;;0.30;0.30;;;;;;;;;;7393628;19;20122;-64
2022/12/26 13:21:51;;;;;;;0.20;0.20;;;;;;;;;;7394683;19;20136;-65
2022/12/26 13:24:22;;;;;;;0.20;0.20;;;;;;;;;;7391524;19;20145;-65
2022/12/26 13:26:57;;;;;;;0.20;0.20;;;;;;;;;;7395887;19;20125;-65
2022/12/26 13:29:40;;;;;;;0.20;0.20;;;;;;;;;;7393960;19;20112;-65
2022/12/26 13:32:25;;;;;;;0.20;0.20;;;;;;;;;;7393464;19;20149;-65
2022/12/26 13:34:53;;;;;;;0.20;0.20;;;;;;;;;;7391425;19;20125;-65
2022/12/26 13:37:36;;;;;;;0.20;0.20;;;;;;;;;;7393103;19;20137;-65
2022/12/26 13:40:10;;;;;;;0.30;0.30;;;;;;;;;;7394498;19;20148;-65
2022/12/26 13:45:40;;;;;;;0.30;0.30;;;;;;;;;;7391339;19;20131;-64
2022/12/26 13:48:11;;;;;;;0.30;0.30;;;;;;;;;;7394136;19;20480;-64
2022/12/26 13:51:03;;;;;;;0.30;0.30;;;;;;;;;;7393556;19;20144;-64
2022/12/26 13:53:57;;;;;;;0.30;0.30;;;;;;;;;;7390871;19;20172;-65
2022/12/26 13:56:22;;;;;;;0.37;0.37;;;;;;;;;;7389016;19;20624;-65
2022/12/26 13:58:49;;;;;;;0.30;0.30;;;;;;;;;;7392620;19;20109;-64
2022/12/26 14:01:23;;;;;;;0.20;0.20;;;;;;;;;;7392309;19;20117;-65
2022/12/26 14:03:53;;;;;;;0.20;0.20;;;;;;;;;;7392147;19;20152;-65
2022/12/26 14:06:30;;;;;;;0.30;0.30;;;;;;;;;;7390268;19;20125;-65
2022/12/26 14:09:11;;;;;;;0.30;0.30;;;;;;;;;;7394530;19;20109;-65
2022/12/26 14:11:55;;;;;;;0.23;0.23;;;;;;;;;;7393051;19;20830;-65
2022/12/26 14:14:31;;;;;;;0.20;0.20;;;;;;;;;;7392807;19;20639;-65
2022/12/26 14:17:30;;;;;;;19.13;0.93;;;;;;;;;;7389152;19;20120;-65
2022/12/26 14:20:16;;;;;;;0.20;0.20;;;;;;;;;;7391578;19;20139;-65
2022/12/26 14:22:41;;;;;;;0.30;0.30;;;;;;;;;;7390548;19;20137;-65
2022/12/26 14:25:18;;;;;;;0.20;0.20;;;;;;;;;;7393245;19;20461;-65
2022/12/26 14:27:53;;;;;;;0.33;0.33;;;;;;;;;;7393399;19;20574;-65
2022/12/26 14:30:29;;;;;;;0.30;0.30;;;;;;;;;;7391611;19;20503;-65
2022/12/26 14:33:13;;;;;;;0.70;0.70;;;;;;;;;;7391140;19;20134;-65
2022/12/26 14:36:06;;;;;;;0.20;0.20;;;;;;;;;;7390128;19;20125;-65
2022/12/26 14:38:45;;;;;;;0.20;0.20;;;;;;;;;;7394002;19;20117;-65
2022/12/26 14:44:18;;;;;;;0.20;0.20;;;;;;;;;;7389616;19;20533;-64
2022/12/26 14:46:54;;;;;;;0.20;0.20;;;;;;;;;;7392075;19;20689;-65
2022/12/26 14:49:36;;;;;;;0.30;0.30;;;;;;;;;;7391991;19;20145;-65
2022/12/26 14:52:42;;;;;;;0.30;0.30;;;;;;;;;;7387257;19;20772;-64
2022/12/26 14:55:46;;;;;;;0.30;0.30;;;;;;;;;;7391807;19;20131;-65
2022/12/26 14:58:37;;;;;;;0.20;0.20;;;;;;;;;;7383469;19;20144;-64
2022/12/26 15:01:12;;;;;;;0.93;0.50;;;;;;;;;;7392467;19;20121;-64
2022/12/26 15:03:58;;;;;;;0.30;0.30;;;;;;;;;;7392220;19;20152;-65
2022/12/26 15:06:49;;;;;;;0.40;0.40;;;;;;;;;;7388872;19;20113;-64
2022/12/26 15:09:27;;;;;;;0.30;0.30;;;;;;;;;;7390564;19;20502;-65
2022/12/26 15:12:30;;;;;;;0.30;0.30;;;;;;;;;;7390708;19;20627;-65
2022/12/26 15:15:19;;;;;;;0.20;0.20;;;;;;;;;;7388974;19;20116;-65
2022/12/26 15:18:07;;;;;;;0.30;0.30;;;;;;;;;;7390393;19;20129;-65
2022/12/26 15:20:38;;;;;;;0.30;0.30;;;;;;;;;;7391936;19;20138;-64
2022/12/26 15:23:15;;;;;;;0.20;0.20;;;;;;;;;;7391554;19;20151;-64
2022/12/26 15:25:49;;;;;;;0.30;0.30;;;;;;;;;;7388767;19;20141;-64
2022/12/26 15:28:42;;;;;;;0.27;0.27;;;;;;;;;;7391413;19;20124;-64
2022/12/26 15:31:10;;;;;;;0.20;0.20;;;;;;;;;;7391665;19;20129;-64
2022/12/26 15:33:58;;;;;;;0.20;0.20;;;;;;;;;;7390210;19;20133;-64
2022/12/26 15:36:48;;;;;;;0.40;0.40;;;;;;;;;;7384847;19;20117;-64
2022/12/26 15:39:28;;;;;;;0.30;0.30;;;;;;;;;;7390075;19;20140;-64
2022/12/26 15:42:20;;;;;;;0.20;0.20;;;;;;;;;;7387045;19;20112;-64
2022/12/26 15:45:27;;;;;;;0.30;0.30;;;;;;;;;;7386219;19;20188;-64
2022/12/26 15:47:59;;;;;;;0.40;0.40;;;;;;;;;;7388639;19;20220;-64
2022/12/26 15:50:28;;;;;;;0.20;0.20;;;;;;;;;;7389591;19;20139;-64
2022/12/26 15:53:16;;;;;;;0.20;0.20;;;;;;;;;;7388564;19;20144;-64
2022/12/26 15:56:00;;;;;;;0.27;0.27;;;;;;;;;;7389439;19;20130;-64
2022/12/26 15:58:47;;;;;;;0.27;0.27;;;;;;;;;;7388144;19;20120;-64
2022/12/26 16:01:12;;;;;;;0.20;0.20;;;;;;;;;;7383113;19;20152;-65
2022/12/26 16:03:53;;;;;;;0.30;0.30;;;;;;;;;;7384290;19;20153;-64
2022/12/26 16:06:56;;;;;;;0.30;0.30;;;;;;;;;;7385087;19;20112;-64
2022/12/26 16:09:39;;;;;;;0.20;0.20;;;;;;;;;;7388476;19;20117;-64
2022/12/26 16:12:17;;;;;;;0.20;0.20;;;;;;;;;;7388202;19;20113;-64
2022/12/26 16:14:43;;;;;;;0.20;0.20;;;;;;;;;;7389490;19;20138;-64
2022/12/26 16:17:12;;;;;;;0.20;0.20;;;;;;;;;;7386274;19;20106;-64
2022/12/26 16:19:39;;;;;;;0.20;0.20;;;;;;;;;;7385073;19;20136;-64
2022/12/26 16:24:51;;;;;;;0.33;0.33;;;;;;;;;;7388697;19;20156;-64
2022/12/26 16:27:19;;;;;;;0.20;0.20;;;;;;;;;;7386747;19;20112;-64
2022/12/26 16:29:48;;;;;;;0.30;0.30;;;;;;;;;;7388914;19;20133;-64
2022/12/26 16:32:22;;;;;;;0.30;0.30;;;;;;;;;;7386977;19;20193;-64
2022/12/26 16:34:48;;;;;;;0.20;0.20;;;;;;;;;;7383991;19;20121;-64
2022/12/26 16:37:22;;;;;;;0.20;0.20;;;;;;;;;;7385922;19;20125;-64
2022/12/26 16:40:19;;;;;;;0.30;0.30;;;;;;;;;;7383429;19;20142;-64
2022/12/26 16:42:55;;;;;;;0.40;0.40;;;;;;;;;;7388265;19;20573;-64
2022/12/26 16:45:21;;;;;;;0.30;0.30;;;;;;;;;;7383995;19;20124;-64
2022/12/26 16:47:47;;;;;;;0.30;0.30;;;;;;;;;;7387152;19;20121;-64
2022/12/26 16:50:19;;;;;;;0.20;0.20;;;;;;;;;;7395091;19;20136;-64
2022/12/26 16:52:44;;;;;;;0.30;0.30;;;;;;;;;;7391129;19;20162;-64
2022/12/26 16:55:25;;;;;;;0.43;0.43;;;;;;;;;;7388831;19;20465;-64
2022/12/26 16:57:55;;;;;;;0.30;0.30;;;;;;;;;;7394759;19;20140;-64
2022/12/26 17:00:20;;;;;;;0.33;0.33;;;;;;;;;;7392692;19;20125;-64
2022/12/26 17:02:48;;;;;;;0.30;0.30;;;;;;;;;;7393036;19;20144;-64
2022/12/26 17:05:22;;;;;;;0.20;0.20;;;;;;;;;;7389863;19;20129;-64
2022/12/26 17:07:49;;;;;;;0.30;0.30;;;;;;;;;;7391841;19;20216;-64
2022/12/26 17:10:21;;;;;;;0.40;0.40;;;;;;;;;;7389676;19;20133;-64
2022/12/26 17:12:47;;;;;;;0.20;0.20;;;;;;;;;;7391574;19;20157;-64
2022/12/26 17:15:20;;;;;;;0.47;0.40;;;;;;;;;;7393431;19;20136;-64
2022/12/26 17:17:46;;;;;;;0.20;0.20;;;;;;;;;;7391506;19;20140;-65
2022/12/26 17:20:35;;;;;;;0.30;0.30;;;;;;;;;;7393166;19;20476;-64
2022/12/26 17:23:31;;;;;;;0.30;0.30;;;;;;;;;;7390399;19;20173;-64
2022/12/26 17:26:16;;;;;;;0.20;0.20;;;;;;;;;;7390201;19;20140;-64
2022/12/26 17:28:42;;;;;;;0.30;0.30;;;;;;;;;;7391905;19;20125;-64
2022/12/26 17:31:12;;;;;;;0.40;0.40;;;;;;;;;;7394640;19;20121;-64
2022/12/26 17:33:39;;;;;;;0.20;0.20;;;;;;;;;;7390975;19;20228;-64
2022/12/26 17:36:10;;;;;;;0.30;0.30;;;;;;;;;;7387859;19;20125;-64
2022/12/26 17:38:36;;;;;;;0.30;0.30;;;;;;;;;;7395335;19;20243;-64
2022/12/26 17:41:03;;;;;;;0.30;0.30;;;;;;;;;;7392588;19;20619;-64
2022/12/26 17:43:36;;;;;;;0.20;0.20;;;;;;;;;;7390975;19;20513;-64
2022/12/26 17:46:02;;;;;;;0.50;0.50;;;;;;;;;;7389106;19;20117;-64
2022/12/26 17:48:28;;;;;;;0.20;0.20;;;;;;;;;;7392757;19;20117;-64
2022/12/26 17:50:57;;;;;;;0.33;0.33;;;;;;;;;;7391995;19;20116;-64
2022/12/26 17:53:35;;;;;;;0.20;0.20;;;;;;;;;;7386297;19;20159;-64
2022/12/26 17:56:03;;;;;;;0.20;0.20;;;;;;;;;;7390637;19;20464;-64
2022/12/26 17:58:28;;;;;;;0.70;0.70;;;;;;;;;;7390190;19;20132;-64
2022/12/26 18:00:54;;;;;;;0.30;0.30;;;;;;;;;;7388068;19;20121;-64
2022/12/26 18:03:19;;;;;;;0.30;0.30;;;;;;;;;;7389832;19;20152;-64
2022/12/26 18:05:46;;;;;;;0.30;0.30;;;;;;;;;;7390992;19;20579;-64
2022/12/26 18:08:41;;;;;;;0.30;0.30;;;;;;;;;;7391917;19;20128;-64
2022/12/26 18:11:09;;;;;;;0.30;0.30;;;;;;;;;;7392004;19;20164;-64
2022/12/26 18:13:35;;;;;;;0.30;0.30;;;;;;;;;;7385665;19;20254;-64
2022/12/26 18:16:01;;;;;;;0.30;0.30;;;;;;;;;;7389646;19;20643;-64
2022/12/26 18:18:35;;;;;;;0.30;0.30;;;;;;;;;;7390495;19;20137;-64
2022/12/26 18:21:01;;;;;;;0.20;0.20;;;;;;;;;;7390048;19;20120;-64
2022/12/26 18:23:27;;;;;;;0.30;0.30;;;;;;;;;;7388916;19;20623;-64
2022/12/26 18:25:54;;;;;;;0.73;0.73;;;;;;;;;;7390023;19;20455;-64
2022/12/26 18:28:19;;;;;;;0.33;0.33;;;;;;;;;;7389326;19;20129;-64
2022/12/26 18:30:45;;;;;;;0.20;0.20;;;;;;;;;;7392057;19;20131;-64
2022/12/26 18:33:11;;;;;;;0.20;0.20;;;;;;;;;;7386191;19;20149;-64
2022/12/26 18:35:39;;;;;;;0.20;0.20;;;;;;;;;;7385248;19;20117;-64
2022/12/26 18:38:04;;;;;;;0.30;0.30;;;;;;;;;;7393282;19;20211;-63
2022/12/26 18:40:39;;;;;;;0.30;0.30;;;;;;;;;;7389625;19;20117;-63
2022/12/26 18:43:06;;;;;;;0.20;0.20;;;;;;;;;;7388355;19;20657;-63
